Elm Grove, Wisconsin
Current Conditions -  °F | °C
As of 4:35 AM on Friday 24 Oct 2014 (Local Time) from KMWC Reporting Station
Haze Haze  
Wind Chill: 10°   Ceiling: 400
Heat Index: 10°   Visibility: 2mi
Dew Point:   Wind: 3mph
Humidity: 87%   Direction: 280°W
Pressure: 30.05"   Gusts: NA
Location:  43.05°N, 88.08°W
Report Text: KMWC 240935Z AUTO 28003KT 2SM BR OVC004 10/08 A3005 RMK AO2
Loading
Personal Weather Stations






























Interactive Weather Map
Tropical Storm Tracking
New forecast layout! Learn more

10-Day Weather Forecast

Advertisements
Track Severe Weather on mobile